Time;durP1;ratioP1;P1;durP2;ratioP2;P2;SDS_P1;SDS_P2;PMS_P1;PMS_P2;Temp;Humidity;BMP_temperature;BMP_pressure;BME280_temperature;BME280_humidity;BME280_pressure;Samples;Min_cycle;Max_cycle;Signal;HPM_P1;HPM_P2
2023/08/13 00:00:00;;;;;;;;;;;22.20;65.60;;;;;;5107591;27;19934;-57
2023/08/13 00:02:27;;;;;;;;;;;22.20;65.60;;;;;;5104842;27;19924;-56
2023/08/13 00:04:54;;;;;;;;;;;22.20;65.50;;;;;;5104939;28;20385;-57
2023/08/13 00:07:21;;;;;;;;;;;22.20;65.50;;;;;;5126021;27;19950;-57
2023/08/13 00:09:48;;;;;;;;;;;22.20;65.50;;;;;;5105665;27;19930;-58
2023/08/13 00:12:14;;;;;;;;;;;22.10;65.30;;;;;;5091330;28;19928;-57
2023/08/13 00:14:41;;;;;;;;;;;22.10;65.30;;;;;;5123146;27;19924;-58
2023/08/13 00:17:09;;;;;;;;;;;22.10;65.30;;;;;;5103946;27;19923;-57
2023/08/13 00:19:36;;;;;;;;;;;22.10;65.30;;;;;;5113833;27;19923;-55
2023/08/13 00:22:03;;;;;;;;;;;22.10;65.20;;;;;;5104014;27;19984;-57
2023/08/13 00:24:30;;;;;;;;;;;22.10;65.10;;;;;;5103451;27;19927;-57
2023/08/13 00:26:57;;;;;;;;;;;22.10;65.10;;;;;;5107594;27;20337;-56
2023/08/13 00:29:23;;;;;;;;;;;22.10;65.00;;;;;;5099512;28;19973;-56
2023/08/13 00:31:54;;;;;;;;;;;22.10;65.00;;;;;;5119552;27;19957;-57
2023/08/13 00:34:22;;;;;;;;;;;22.20;64.90;;;;;;5104824;28;20014;-57
2023/08/13 00:36:49;;;;;;;;;;;22.10;64.80;;;;;;5100326;28;20381;-56
2023/08/13 00:39:16;;;;;;;;;;;22.10;64.70;;;;;;5103805;28;19935;-57
2023/08/13 00:41:43;;;;;;;;;;;22.20;64.80;;;;;;5093166;28;19958;-57
2023/08/13 00:44:10;;;;;;;;;;;22.10;64.60;;;;;;5108602;28;20408;-58
2023/08/13 00:46:37;;;;;;;;;;;22.10;64.60;;;;;;5107087;28;19924;-58
2023/08/13 00:49:03;;;;;;;;;;;22.10;64.50;;;;;;5100646;28;19935;-57
2023/08/13 00:51:32;;;;;;;;;;;22.10;64.40;;;;;;5126734;27;20380;-56
2023/08/13 00:53:59;;;;;;;;;;;22.10;64.30;;;;;;5114054;28;19935;-57
2023/08/13 00:56:26;;;;;;;;;;;22.10;64.20;;;;;;5105058;28;19928;-57
2023/08/13 00:58:53;;;;;;;;;;;22.10;64.20;;;;;;5105752;28;19927;-57
2023/08/13 01:01:20;;;;;;;;;;;22.10;64.10;;;;;;5110709;28;19932;-58
2023/08/13 01:03:46;;;;;;;;;;;22.10;64.00;;;;;;5102219;28;19931;-57
2023/08/13 01:06:15;;;;;;;;;;;22.10;64.00;;;;;;5092587;28;19924;-57
2023/08/13 01:08:44;;;;;;;;;;;22.10;63.90;;;;;;5128627;28;19930;-57
2023/08/13 01:11:13;;;;;;;;;;;22.10;63.80;;;;;;5109003;27;19928;-57
2023/08/13 01:13:41;;;;;;;;;;;22.00;63.60;;;;;;5127094;27;19931;-58
2023/08/13 01:16:08;;;;;;;;;;;22.00;63.60;;;;;;5109277;27;19927;-57
2023/08/13 01:18:35;;;;;;;;;;;22.00;63.40;;;;;;5117825;27;19931;-57
2023/08/13 01:21:02;;;;;;;;;;;22.00;63.40;;;;;;5105286;28;19977;-57
2023/08/13 01:23:30;;;;;;;;;;;22.10;63.40;;;;;;5111971;27;20026;-56
2023/08/13 01:25:58;;;;;;;;;;;22.00;63.30;;;;;;5111319;27;19927;-57
2023/08/13 01:28:27;;;;;;;;;;;22.00;63.20;;;;;;5108986;27;19989;-56
2023/08/13 01:30:55;;;;;;;;;;;22.00;63.10;;;;;;5103860;27;19931;-57
2023/08/13 01:33:26;;;;;;;;;;;22.00;63.00;;;;;;5108215;28;19924;-57
2023/08/13 01:35:53;;;;;;;;;;;22.00;63.00;;;;;;5127719;27;19931;-57
2023/08/13 01:38:20;;;;;;;;;;;22.00;62.90;;;;;;5115668;27;19928;-57
2023/08/13 01:40:49;;;;;;;;;;;22.00;62.80;;;;;;5113271;28;19923;-57
2023/08/13 01:43:16;;;;;;;;;;;22.00;62.80;;;;;;5116865;27;19924;-57
2023/08/13 01:45:42;;;;;;;;;;;22.00;62.70;;;;;;5108793;27;20410;-57
2023/08/13 01:48:09;;;;;;;;;;;22.00;62.60;;;;;;5107381;28;19990;-57
2023/08/13 01:50:37;;;;;;;;;;;22.00;62.60;;;;;;5126085;27;19954;-57
2023/08/13 01:53:04;;;;;;;;;;;22.00;62.50;;;;;;5127771;27;19923;-57
2023/08/13 01:55:31;;;;;;;;;;;22.00;62.40;;;;;;5108556;27;19927;-57
2023/08/13 01:57:59;;;;;;;;;;;22.00;62.30;;;;;;5117226;27;19923;-55
2023/08/13 02:00:26;;;;;;;;;;;22.00;62.30;;;;;;5115625;27;19919;-56
2023/08/13 02:02:52;;;;;;;;;;;22.00;62.20;;;;;;5108396;27;20373;-55
2023/08/13 02:05:19;;;;;;;;;;;22.00;62.20;;;;;;5108236;27;20259;-57
2023/08/13 02:07:46;;;;;;;;;;;22.00;62.00;;;;;;5104555;27;19923;-57
2023/08/13 02:10:12;;;;;;;;;;;21.90;61.90;;;;;;5104056;27;19927;-57
2023/08/13 02:12:39;;;;;;;;;;;21.90;61.90;;;;;;5104231;27;19931;-57
2023/08/13 02:15:08;;;;;;;;;;;21.90;61.90;;;;;;5116353;27;19977;-57
2023/08/13 02:17:35;;;;;;;;;;;21.90;61.80;;;;;;5116603;27;19923;-57
2023/08/13 02:20:02;;;;;;;;;;;21.90;61.70;;;;;;5123700;27;19934;-57
2023/08/13 02:22:28;;;;;;;;;;;21.90;61.70;;;;;;5096741;27;19938;-57
2023/08/13 02:24:55;;;;;;;;;;;21.90;61.60;;;;;;5108055;27;19923;-56
2023/08/13 02:27:22;;;;;;;;;;;21.90;61.60;;;;;;5105389;27;19932;-57
2023/08/13 02:29:49;;;;;;;;;;;21.90;61.50;;;;;;5108318;27;19939;-57
2023/08/13 02:32:17;;;;;;;;;;;21.90;61.40;;;;;;5100025;28;19924;-57
2023/08/13 02:34:44;;;;;;;;;;;21.90;61.40;;;;;;5126151;27;19923;-57
2023/08/13 02:37:11;;;;;;;;;;;21.90;61.40;;;;;;5112597;27;19924;-57
2023/08/13 02:39:38;;;;;;;;;;;21.90;61.40;;;;;;5095234;28;19932;-57
2023/08/13 02:42:04;;;;;;;;;;;21.90;61.40;;;;;;5108683;27;19928;-57
2023/08/13 02:44:31;;;;;;;;;;;21.90;61.40;;;;;;5097576;28;19935;-57
2023/08/13 02:46:58;;;;;;;;;;;21.90;61.40;;;;;;5116245;27;19927;-57
2023/08/13 02:49:26;;;;;;;;;;;21.90;61.30;;;;;;5104800;27;19923;-56
2023/08/13 02:51:53;;;;;;;;;;;21.90;61.30;;;;;;5108594;28;19989;-56
2023/08/13 02:54:20;;;;;;;;;;;21.90;61.30;;;;;;5130798;27;19932;-57
2023/08/13 02:56:47;;;;;;;;;;;21.90;61.30;;;;;;5124874;27;20022;-56
2023/08/13 02:59:13;;;;;;;;;;;21.90;61.20;;;;;;5117582;27;20040;-57
2023/08/13 03:01:40;;;;;;;;;;;21.90;61.20;;;;;;5103242;28;19923;-57
2023/08/13 03:04:07;;;;;;;;;;;21.90;61.20;;;;;;5126628;27;19923;-56
2023/08/13 03:06:35;;;;;;;;;;;21.90;61.10;;;;;;5113657;27;19923;-57
2023/08/13 03:09:02;;;;;;;;;;;21.90;61.10;;;;;;5103490;27;19931;-57
2023/08/13 03:11:28;;;;;;;;;;;21.90;61.10;;;;;;5126941;27;19931;-57
2023/08/13 03:13:55;;;;;;;;;;;21.90;61.10;;;;;;5107724;27;19927;-56
2023/08/13 03:16:22;;;;;;;;;;;21.90;61.10;;;;;;5105788;27;19927;-56
2023/08/13 03:18:49;;;;;;;;;;;21.90;61.10;;;;;;5091487;27;20396;-56
2023/08/13 03:21:16;;;;;;;;;;;21.90;61.10;;;;;;5113385;27;19923;-57
2023/08/13 03:23:44;;;;;;;;;;;21.90;61.10;;;;;;5103283;28;19946;-57
2023/08/13 03:26:10;;;;;;;;;;;21.90;61.10;;;;;;5109304;28;19931;-58
2023/08/13 03:28:37;;;;;;;;;;;21.90;61.20;;;;;;5108345;27;19952;-57
2023/08/13 03:31:04;;;;;;;;;;;21.90;61.10;;;;;;5115122;27;19923;-58
2023/08/13 03:33:31;;;;;;;;;;;21.90;61.10;;;;;;5104384;27;19927;-57
2023/08/13 03:35:57;;;;;;;;;;;21.90;61.10;;;;;;5115104;27;19923;-58
2023/08/13 03:38:24;;;;;;;;;;;21.90;61.00;;;;;;5106487;27;20292;-58
2023/08/13 03:40:55;;;;;;;;;;;21.90;61.00;;;;;;5106893;27;19924;-57
2023/08/13 03:43:22;;;;;;;;;;;21.90;61.00;;;;;;5109693;28;19932;-58
2023/08/13 03:45:49;;;;;;;;;;;21.90;61.00;;;;;;5110728;28;19923;-57
2023/08/13 03:48:16;;;;;;;;;;;21.90;61.00;;;;;;5096092;28;19928;-58
2023/08/13 03:50:43;;;;;;;;;;;21.90;61.00;;;;;;5106115;27;19928;-57
2023/08/13 03:53:09;;;;;;;;;;;21.90;61.00;;;;;;5101889;28;19923;-57
2023/08/13 03:55:36;;;;;;;;;;;21.90;61.00;;;;;;5114908;27;19924;-58
2023/08/13 03:58:05;;;;;;;;;;;21.90;60.90;;;;;;5110066;27;19928;-57
2023/08/13 04:00:32;;;;;;;;;;;21.90;60.90;;;;;;5112602;27;19930;-57
2023/08/13 04:02:58;;;;;;;;;;;21.90;60.90;;;;;;5107620;27;19927;-58
2023/08/13 04:05:25;;;;;;;;;;;21.90;60.90;;;;;;5105445;27;19977;-57
2023/08/13 04:07:52;;;;;;;;;;;21.90;60.90;;;;;;5124059;27;19923;-58
2023/08/13 04:10:19;;;;;;;;;;;21.90;60.90;;;;;;5102291;28;19969;-58
2023/08/13 04:12:46;;;;;;;;;;;21.90;61.00;;;;;;5115877;27;19927;-58
2023/08/13 04:15:14;;;;;;;;;;;21.90;61.00;;;;;;5116455;27;20343;-58
2023/08/13 04:17:40;;;;;;;;;;;21.90;61.00;;;;;;5108611;27;19923;-58
2023/08/13 04:20:10;;;;;;;;;;;21.90;61.00;;;;;;5132579;27;19948;-58
2023/08/13 04:22:37;;;;;;;;;;;21.90;61.00;;;;;;5123400;27;20111;-58
2023/08/13 04:25:04;;;;;;;;;;;21.90;61.00;;;;;;5110622;28;20234;-58
2023/08/13 04:27:30;;;;;;;;;;;21.90;61.00;;;;;;5101643;27;19924;-58
2023/08/13 04:29:57;;;;;;;;;;;21.90;61.00;;;;;;5108562;28;19927;-58
2023/08/13 04:32:26;;;;;;;;;;;21.90;61.00;;;;;;5107711;28;19966;-58
2023/08/13 04:34:52;;;;;;;;;;;21.90;61.00;;;;;;5125292;27;19928;-57
2023/08/13 04:37:19;;;;;;;;;;;21.90;61.10;;;;;;5101873;28;19949;-57
2023/08/13 04:39:46;;;;;;;;;;;21.90;61.00;;;;;;5113879;28;19924;-57
2023/08/13 04:42:13;;;;;;;;;;;21.90;61.00;;;;;;5129491;28;19962;-57
2023/08/13 04:44:39;;;;;;;;;;;21.90;61.00;;;;;;5106813;27;19932;-57
2023/08/13 04:47:06;;;;;;;;;;;21.90;61.10;;;;;;5100232;28;20366;-57
2023/08/13 04:49:35;;;;;;;;;;;21.90;61.00;;;;;;5105765;27;19928;-57
2023/08/13 04:52:01;;;;;;;;;;;21.90;61.10;;;;;;5109462;27;19923;-57
2023/08/13 04:54:28;;;;;;;;;;;21.90;61.10;;;;;;5105539;27;19927;-57
2023/08/13 04:56:55;;;;;;;;;;;21.90;61.10;;;;;;5136451;27;19923;-57
2023/08/13 04:59:22;;;;;;;;;;;21.90;61.10;;;;;;5124178;27;19931;-58
2023/08/13 05:01:48;;;;;;;;;;;21.90;61.10;;;;;;5125623;27;20313;-58
2023/08/13 05:04:15;;;;;;;;;;;21.90;61.10;;;;;;5106114;27;20018;-57
2023/08/13 05:06:44;;;;;;;;;;;21.90;61.10;;;;;;5106089;28;20438;-58
2023/08/13 05:09:10;;;;;;;;;;;21.90;61.10;;;;;;5114195;27;20452;-58
2023/08/13 05:11:37;;;;;;;;;;;21.90;61.10;;;;;;5100776;27;19949;-57
2023/08/13 05:14:04;;;;;;;;;;;21.90;61.10;;;;;;5115078;27;19997;-57
2023/08/13 05:16:31;;;;;;;;;;;21.90;61.10;;;;;;5107286;27;20583;-57
2023/08/13 05:18:57;;;;;;;;;;;21.90;61.10;;;;;;5111967;27;19924;-57
2023/08/13 05:21:24;;;;;;;;;;;21.90;61.10;;;;;;5106165;27;19927;-57
2023/08/13 05:23:53;;;;;;;;;;;21.90;61.10;;;;;;5106102;28;20389;-58
2023/08/13 05:26:19;;;;;;;;;;;21.90;61.10;;;;;;5108255;27;19923;-58
2023/08/13 05:28:46;;;;;;;;;;;21.90;61.10;;;;;;5100746;27;19930;-58
2023/08/13 05:31:13;;;;;;;;;;;21.90;61.10;;;;;;5100826;28;19923;-58
2023/08/13 05:33:40;;;;;;;;;;;21.90;61.10;;;;;;5108608;27;19931;-58
2023/08/13 05:36:07;;;;;;;;;;;21.90;61.10;;;;;;5110776;27;19941;-58
2023/08/13 05:38:33;;;;;;;;;;;21.90;61.20;;;;;;5105123;27;20327;-58
2023/08/13 05:41:01;;;;;;;;;;;21.90;61.20;;;;;;5108405;27;19927;-58
2023/08/13 05:43:28;;;;;;;;;;;21.90;61.30;;;;;;5115289;27;20393;-58
2023/08/13 05:45:55;;;;;;;;;;;21.90;61.30;;;;;;5099372;28;19990;-58
2023/08/13 05:48:22;;;;;;;;;;;21.90;61.30;;;;;;5107965;27;19933;-58
2023/08/13 05:50:48;;;;;;;;;;;21.90;61.20;;;;;;5108609;27;19923;-59
2023/08/13 05:53:15;;;;;;;;;;;21.90;61.30;;;;;;5111494;28;19977;-58
2023/08/13 05:55:42;;;;;;;;;;;21.90;61.30;;;;;;5115795;27;19969;-58
2023/08/13 05:58:10;;;;;;;;;;;21.90;61.30;;;;;;5120043;27;19967;-58
2023/08/13 06:00:37;;;;;;;;;;;21.90;61.30;;;;;;5104234;27;19924;-58
2023/08/13 06:03:04;;;;;;;;;;;21.90;61.30;;;;;;5105613;28;19977;-58
2023/08/13 06:05:31;;;;;;;;;;;21.90;61.40;;;;;;5126059;27;19923;-59
2023/08/13 06:07:58;;;;;;;;;;;21.90;61.40;;;;;;5124060;27;19924;-57
2023/08/13 06:10:25;;;;;;;;;;;21.90;61.40;;;;;;5110060;27;19980;-57
2023/08/13 06:12:52;;;;;;;;;;;21.90;61.40;;;;;;5123171;27;19931;-57
2023/08/13 06:15:20;;;;;;;;;;;21.90;61.40;;;;;;5105205;27;19930;-57
2023/08/13 06:17:48;;;;;;;;;;;21.90;61.40;;;;;;5113982;28;19969;-58
2023/08/13 06:20:17;;;;;;;;;;;21.90;61.40;;;;;;5107721;28;20285;-58
2023/08/13 06:22:44;;;;;;;;;;;21.90;61.40;;;;;;5128684;27;20143;-57
2023/08/13 06:25:10;;;;;;;;;;;21.90;61.50;;;;;;5113091;27;19983;-58
2023/08/13 06:27:37;;;;;;;;;;;21.90;61.50;;;;;;5111785;27;20188;-59
2023/08/13 06:30:04;;;;;;;;;;;21.90;61.50;;;;;;5111916;27;19970;-59
2023/08/13 06:32:32;;;;;;;;;;;22.00;61.70;;;;;;5103154;27;19927;-58
2023/08/13 06:34:59;;;;;;;;;;;21.90;61.60;;;;;;5105479;27;19927;-58
2023/08/13 06:37:26;;;;;;;;;;;21.90;61.60;;;;;;5122238;27;19984;-58
2023/08/13 06:39:53;;;;;;;;;;;21.90;61.60;;;;;;5097673;28;20368;-58
2023/08/13 06:42:19;;;;;;;;;;;21.90;61.60;;;;;;5112592;27;19978;-58
2023/08/13 06:44:46;;;;;;;;;;;21.90;61.60;;;;;;5101799;27;19923;-58
2023/08/13 06:47:13;;;;;;;;;;;21.90;61.60;;;;;;5125429;27;19924;-58
2023/08/13 06:49:42;;;;;;;;;;;21.90;61.60;;;;;;5096586;28;19939;-58
2023/08/13 06:52:08;;;;;;;;;;;21.90;61.70;;;;;;5097691;28;19928;-58
2023/08/13 06:54:35;;;;;;;;;;;22.00;61.80;;;;;;5096380;28;20067;-58
2023/08/13 06:57:02;;;;;;;;;;;22.00;61.80;;;;;;5100345;28;19943;-58
2023/08/13 06:59:29;;;;;;;;;;;22.00;61.80;;;;;;5126839;27;20008;-58
2023/08/13 07:01:56;;;;;;;;;;;22.00;61.90;;;;;;5096462;28;19938;-59
2023/08/13 07:04:22;;;;;;;;;;;22.00;61.90;;;;;;5098352;28;19930;-59
2023/08/13 07:06:51;;;;;;;;;;;22.00;61.90;;;;;;5097949;27;20381;-58
2023/08/13 07:09:18;;;;;;;;;;;22.00;61.90;;;;;;5095737;28;20330;-58
2023/08/13 07:11:45;;;;;;;;;;;22.00;61.90;;;;;;5093369;28;20007;-58
2023/08/13 07:14:12;;;;;;;;;;;22.00;61.90;;;;;;5094229;28;19936;-58
2023/08/13 07:16:39;;;;;;;;;;;22.00;61.90;;;;;;5095736;27;19958;-58
2023/08/13 07:19:06;;;;;;;;;;;22.00;61.90;;;;;;5130848;27;19923;-58
2023/08/13 07:21:33;;;;;;;;;;;22.00;61.90;;;;;;5115638;27;19924;-58
2023/08/13 07:24:03;;;;;;;;;;;22.00;61.90;;;;;;5095012;28;19931;-58
2023/08/13 07:26:30;;;;;;;;;;;22.00;62.00;;;;;;5095700;28;20447;-58
2023/08/13 07:28:57;;;;;;;;;;;22.00;62.00;;;;;;5111408;27;19938;-58
2023/08/13 07:31:24;;;;;;;;;;;22.00;62.00;;;;;;5096974;27;19923;-57
2023/08/13 07:33:52;;;;;;;;;;;22.00;61.90;;;;;;5094020;28;19924;-58
2023/08/13 07:36:20;;;;;;;;;;;22.00;61.90;;;;;;5125433;27;20363;-58
2023/08/13 07:38:47;;;;;;;;;;;22.00;61.90;;;;;;5093145;28;19954;-58
2023/08/13 07:41:16;;;;;;;;;;;22.00;61.90;;;;;;5095797;28;19924;-58
2023/08/13 07:43:42;;;;;;;;;;;22.00;61.90;;;;;;5117117;27;20020;-58
2023/08/13 07:46:09;;;;;;;;;;;22.00;61.80;;;;;;5100462;28;19924;-58
2023/08/13 07:48:36;;;;;;;;;;;22.00;61.80;;;;;;5090028;28;19943;-58
2023/08/13 07:51:03;;;;;;;;;;;22.00;61.70;;;;;;5092453;28;19924;-58
2023/08/13 07:53:31;;;;;;;;;;;22.00;61.70;;;;;;5095601;27;19927;-58
2023/08/13 07:55:58;;;;;;;;;;;22.00;61.70;;;;;;5096871;28;19963;-58
2023/08/13 07:58:26;;;;;;;;;;;22.00;61.70;;;;;;5096808;27;19985;-59
2023/08/13 08:00:53;;;;;;;;;;;22.00;61.60;;;;;;5113586;27;19928;-59
2023/08/13 08:03:20;;;;;;;;;;;22.00;61.60;;;;;;5077939;28;19924;-59
2023/08/13 08:05:49;;;;;;;;;;;22.00;61.60;;;;;;5105862;28;19927;-58
2023/08/13 08:08:16;;;;;;;;;;;22.00;61.60;;;;;;5128061;27;19931;-58
2023/08/13 08:10:42;;;;;;;;;;;22.00;61.60;;;;;;5128640;27;19932;-58
2023/08/13 08:13:09;;;;;;;;;;;22.00;61.50;;;;;;5095709;28;19980;-58
2023/08/13 08:15:37;;;;;;;;;;;22.00;61.50;;;;;;5112678;27;19935;-58
2023/08/13 08:18:04;;;;;;;;;;;22.00;61.50;;;;;;5095585;28;19931;-59
2023/08/13 08:20:31;;;;;;;;;;;22.00;61.50;;;;;;5096471;28;19932;-59
2023/08/13 08:22:58;;;;;;;;;;;22.00;61.40;;;;;;5109977;28;19931;-59
2023/08/13 08:25:25;;;;;;;;;;;22.00;61.40;;;;;;5095595;28;19993;-59
2023/08/13 08:27:51;;;;;;;;;;;22.00;61.40;;;;;;5097531;28;19923;-59
2023/08/13 08:30:18;;;;;;;;;;;22.00;61.40;;;;;;5116039;27;19923;-59
2023/08/13 08:32:46;;;;;;;;;;;22.00;61.30;;;;;;5130290;27;19928;-59
2023/08/13 08:35:14;;;;;;;;;;;22.00;61.30;;;;;;5134548;27;20389;-58
2023/08/13 08:37:40;;;;;;;;;;;22.10;61.40;;;;;;5130894;27;19963;-58
2023/08/13 08:40:08;;;;;;;;;;;22.10;61.40;;;;;;5104821;28;20330;-58
2023/08/13 08:42:34;;;;;;;;;;;22.10;61.40;;;;;;5106843;28;19928;-58
2023/08/13 08:45:01;;;;;;;;;;;22.10;61.40;;;;;;5107232;28;19924;-58
2023/08/13 08:47:28;;;;;;;;;;;22.10;61.40;;;;;;5093919;28;19928;-59
2023/08/13 08:49:56;;;;;;;;;;;22.10;61.40;;;;;;5115961;28;19923;-59
2023/08/13 08:52:23;;;;;;;;;;;22.10;61.40;;;;;;5103958;28;19924;-59
2023/08/13 08:54:50;;;;;;;;;;;22.10;61.10;;;;;;5101442;28;19924;-59
2023/08/13 08:57:16;;;;;;;;;;;22.10;61.00;;;;;;5089885;28;19935;-61
2023/08/13 08:59:44;;;;;;;;;;;22.10;61.00;;;;;;5102387;28;19932;-58
2023/08/13 09:02:11;;;;;;;;;;;22.10;60.70;;;;;;5105418;28;19938;-57
2023/08/13 09:04:38;;;;;;;;;;;22.10;60.60;;;;;;5095744;28;19958;-59
2023/08/13 09:07:06;;;;;;;;;;;22.10;60.30;;;;;;5093116;28;20640;-59
2023/08/13 09:09:33;;;;;;;;;;;22.10;60.30;;;;;;5104379;28;20449;-60
2023/08/13 09:12:00;;;;;;;;;;;22.10;60.20;;;;;;5096973;28;19979;-59
2023/08/13 09:14:26;;;;;;;;;;;22.00;60.00;;;;;;5123921;27;19938;-59
2023/08/13 09:16:54;;;;;;;;;;;22.00;60.00;;;;;;5106910;28;20341;-58
2023/08/13 09:19:20;;;;;;;;;;;22.00;59.80;;;;;;5096185;28;19924;-59
2023/08/13 09:21:49;;;;;;;;;;;22.00;59.80;;;;;;5107357;28;19927;-59
2023/08/13 09:24:17;;;;;;;;;;;22.00;59.60;;;;;;5096586;28;20513;-60
2023/08/13 09:26:44;;;;;;;;;;;22.00;59.70;;;;;;5075706;28;20023;-60
2023/08/13 09:29:10;;;;;;;;;;;22.00;59.70;;;;;;5095125;28;19932;-59
2023/08/13 09:31:37;;;;;;;;;;;22.00;59.80;;;;;;5094618;27;19935;-58
2023/08/13 09:34:04;;;;;;;;;;;22.00;59.90;;;;;;5121637;27;19923;-60
2023/08/13 09:36:32;;;;;;;;;;;22.00;59.90;;;;;;5100290;27;19927;-59
2023/08/13 09:38:59;;;;;;;;;;;22.00;60.00;;;;;;5097524;28;19932;-58
2023/08/13 09:41:28;;;;;;;;;;;22.00;60.00;;;;;;5119064;27;19998;-59
2023/08/13 09:43:55;;;;;;;;;;;22.00;60.10;;;;;;5105801;27;19923;-59
2023/08/13 09:46:22;;;;;;;;;;;22.00;60.20;;;;;;5116893;27;19935;-59
2023/08/13 09:48:48;;;;;;;;;;;22.00;60.20;;;;;;5109817;27;19931;-58
2023/08/13 09:51:15;;;;;;;;;;;22.00;60.20;;;;;;5102408;28;19932;-58
2023/08/13 09:53:42;;;;;;;;;;;22.00;60.20;;;;;;5108144;27;19931;-59
2023/08/13 09:56:09;;;;;;;;;;;22.10;60.30;;;;;;5109355;27;19924;-59
2023/08/13 09:58:37;;;;;;;;;;;22.00;60.20;;;;;;5097589;27;19924;-57
2023/08/13 10:01:04;;;;;;;;;;;22.10;60.30;;;;;;5118698;27;19932;-59
2023/08/13 10:03:31;;;;;;;;;;;22.10;60.30;;;;;;5093503;28;19991;-58
2023/08/13 10:05:58;;;;;;;;;;;22.10;60.30;;;;;;5095536;28;20297;-59
2023/08/13 10:08:25;;;;;;;;;;;22.10;60.40;;;;;;5096250;27;19923;-58
2023/08/13 10:10:51;;;;;;;;;;;22.10;60.50;;;;;;5094931;27;19934;-59
2023/08/13 10:13:19;;;;;;;;;;;22.10;60.50;;;;;;5100918;28;19950;-59
2023/08/13 10:15:47;;;;;;;;;;;22.10;61.30;;;;;;5101300;27;20409;-59
2023/08/13 10:18:14;;;;;;;;;;;22.10;60.40;;;;;;5111504;27;19980;-60
2023/08/13 10:20:44;;;;;;;;;;;22.10;60.40;;;;;;5127966;27;19931;-59
2023/08/13 10:23:11;;;;;;;;;;;22.10;60.30;;;;;;5116607;27;19969;-59
2023/08/13 10:25:39;;;;;;;;;;;22.10;60.20;;;;;;5121932;27;19927;-59
2023/08/13 10:28:19;;;;;;;;;;;22.10;60.20;;;;;;5128580;27;19930;-59
2023/08/13 10:30:48;;;;;;;;;;;22.10;60.20;;;;;;5088221;27;20668;-58
2023/08/13 10:33:15;;;;;;;;;;;22.10;60.20;;;;;;5097511;28;19962;-59
2023/08/13 10:35:43;;;;;;;;;;;22.10;60.10;;;;;;5131188;27;19987;-58
2023/08/13 10:38:10;;;;;;;;;;;22.10;60.10;;;;;;5107601;27;19923;-60
2023/08/13 10:40:36;;;;;;;;;;;22.10;60.10;;;;;;5104283;28;19985;-58
2023/08/13 10:43:03;;;;;;;;;;;22.10;60.00;;;;;;5094859;28;19924;-58
2023/08/13 10:45:32;;;;;;;;;;;22.10;60.00;;;;;;5100703;27;19927;-58
2023/08/13 10:48:01;;;;;;;;;;;22.10;60.20;;;;;;5106334;27;20086;-58
2023/08/13 10:50:29;;;;;;;;;;;22.10;60.20;;;;;;5101289;27;19938;-58
2023/08/13 10:52:56;;;;;;;;;;;22.20;60.30;;;;;;5132825;27;19924;-60
2023/08/13 10:55:23;;;;;;;;;;;22.20;60.40;;;;;;5095853;27;19936;-59
2023/08/13 10:57:50;;;;;;;;;;;22.20;60.30;;;;;;5129182;27;19924;-59
2023/08/13 11:00:17;;;;;;;;;;;22.20;60.30;;;;;;5101517;28;19974;-59
2023/08/13 11:02:44;;;;;;;;;;;22.20;60.20;;;;;;5107312;28;19974;-59
2023/08/13 11:05:14;;;;;;;;;;;22.20;60.90;;;;;;5095020;28;20120;-59
2023/08/13 11:07:41;;;;;;;;;;;22.20;60.90;;;;;;5108677;27;19930;-59
2023/08/13 11:10:08;;;;;;;;;;;22.20;60.00;;;;;;5097891;28;19928;-59
2023/08/13 11:12:35;;;;;;;;;;;22.20;60.10;;;;;;5131136;27;19932;-59
2023/08/13 11:15:02;;;;;;;;;;;22.20;60.10;;;;;;5099448;28;19928;-59
2023/08/13 11:17:29;;;;;;;;;;;22.20;60.10;;;;;;5112966;27;20014;-59
2023/08/13 11:19:56;;;;;;;;;;;22.20;60.00;;;;;;5118175;27;19927;-58
2023/08/13 11:22:25;;;;;;;;;;;22.20;60.00;;;;;;5095702;27;19924;-58
2023/08/13 11:24:52;;;;;;;;;;;22.20;60.00;;;;;;5109797;28;20357;-59
2023/08/13 11:27:19;;;;;;;;;;;22.30;60.00;;;;;;5112061;27;19927;-58
2023/08/13 11:29:46;;;;;;;;;;;22.30;60.00;;;;;;5094548;27;19944;-59
2023/08/13 11:32:13;;;;;;;;;;;22.30;59.90;;;;;;5098767;28;19924;-58
2023/08/13 11:34:40;;;;;;;;;;;22.30;59.90;;;;;;5108124;27;19939;-58
2023/08/13 11:37:06;;;;;;;;;;;22.30;59.80;;;;;;5098092;28;19938;-58
2023/08/13 11:39:35;;;;;;;;;;;22.30;59.90;;;;;;5098985;28;19947;-58
2023/08/13 11:42:10;;;;;;;;;;;22.30;59.80;;;;;;5129937;27;20296;-58
2023/08/13 11:44:37;;;;;;;;;;;22.30;60.40;;;;;;5122011;27;19973;-58
2023/08/13 11:47:05;;;;;;;;;;;22.30;59.70;;;;;;5118873;27;19930;-59
2023/08/13 11:49:31;;;;;;;;;;;22.30;59.70;;;;;;5128861;27;19920;-58
2023/08/13 11:51:58;;;;;;;;;;;22.40;59.80;;;;;;5093968;27;19979;-58
2023/08/13 11:54:25;;;;;;;;;;;22.40;59.80;;;;;;5093522;28;19924;-58
2023/08/13 11:56:54;;;;;;;;;;;22.40;59.70;;;;;;5132753;27;19928;-58
2023/08/13 11:59:22;;;;;;;;;;;22.40;59.60;;;;;;5103294;27;19931;-58
2023/08/13 12:01:50;;;;;;;;;;;22.40;59.50;;;;;;5102529;28;19923;-61
2023/08/13 12:04:17;;;;;;;;;;;22.40;59.30;;;;;;5100449;28;19931;-62
2023/08/13 12:06:45;;;;;;;;;;;22.40;58.80;;;;;;5094715;28;19931;-61
2023/08/13 12:09:13;;;;;;;;;;;22.40;58.60;;;;;;5111680;28;19971;-61
2023/08/13 12:11:40;;;;;;;;;;;22.40;58.50;;;;;;5100239;27;19938;-61
2023/08/13 12:14:08;;;;;;;;;;;22.40;58.40;;;;;;5101521;28;19924;-61
2023/08/13 12:16:35;;;;;;;;;;;22.50;58.50;;;;;;5095617;28;19927;-62
2023/08/13 12:19:03;;;;;;;;;;;22.50;58.40;;;;;;5092958;28;19927;-61
2023/08/13 12:21:29;;;;;;;;;;;22.50;58.50;;;;;;5096777;28;20057;-62
2023/08/13 12:23:56;;;;;;;;;;;22.50;58.50;;;;;;5093070;27;19927;-61
2023/08/13 12:26:23;;;;;;;;;;;22.60;58.70;;;;;;5090006;27;19923;-61
2023/08/13 12:28:51;;;;;;;;;;;22.60;58.40;;;;;;5111846;28;19924;-62
2023/08/13 12:31:20;;;;;;;;;;;22.60;58.20;;;;;;5099601;28;20019;-61
2023/08/13 12:33:46;;;;;;;;;;;22.60;58.10;;;;;;5100694;27;19927;-61
2023/08/13 12:36:13;;;;;;;;;;;22.70;58.00;;;;;;5116703;27;19923;-61
2023/08/13 12:38:40;;;;;;;;;;;22.70;57.80;;;;;;5101489;28;19993;-61
2023/08/13 12:41:07;;;;;;;;;;;22.70;57.80;;;;;;5128329;27;19924;-61
2023/08/13 12:43:34;;;;;;;;;;;22.70;57.60;;;;;;5094262;28;20000;-61
2023/08/13 12:46:01;;;;;;;;;;;22.80;57.80;;;;;;5098587;28;19924;-62
2023/08/13 12:48:31;;;;;;;;;;;22.80;57.00;;;;;;5102584;28;19923;-61
2023/08/13 12:50:58;;;;;;;;;;;22.80;56.70;;;;;;5097925;28;19928;-61
2023/08/13 12:53:25;;;;;;;;;;;22.80;57.30;;;;;;5128176;27;19953;-61
2023/08/13 12:55:51;;;;;;;;;;;22.80;57.00;;;;;;5100522;28;19924;-62
2023/08/13 12:58:18;;;;;;;;;;;22.90;56.80;;;;;;5100697;28;19950;-61
2023/08/13 13:00:45;;;;;;;;;;;22.90;56.60;;;;;;5101990;28;19984;-62
2023/08/13 13:03:12;;;;;;;;;;;22.90;56.70;;;;;;5114877;28;19931;-60
2023/08/13 13:05:40;;;;;;;;;;;22.90;56.80;;;;;;5097471;28;19924;-61
2023/08/13 13:08:07;;;;;;;;;;;22.90;57.00;;;;;;5114851;28;19928;-61
2023/08/13 13:10:33;;;;;;;;;;;22.90;57.00;;;;;;5101706;28;19924;-61
2023/08/13 13:13:00;;;;;;;;;;;23.00;56.80;;;;;;5103008;28;20013;-61
2023/08/13 13:15:27;;;;;;;;;;;23.00;56.30;;;;;;5096757;28;19980;-61
2023/08/13 13:17:54;;;;;;;;;;;23.00;56.20;;;;;;5096040;28;20064;-61
2023/08/13 13:20:22;;;;;;;;;;;23.00;56.40;;;;;;5126924;27;19931;-61
2023/08/13 13:22:50;;;;;;;;;;;23.00;56.70;;;;;;5116015;27;19969;-62
2023/08/13 13:25:17;;;;;;;;;;;23.00;56.50;;;;;;5099429;28;19947;-62
2023/08/13 13:27:44;;;;;;;;;;;23.00;56.30;;;;;;5103444;27;19983;-61
2023/08/13 13:30:11;;;;;;;;;;;23.00;56.30;;;;;;5126908;27;19928;-62
2023/08/13 13:32:38;;;;;;;;;;;23.00;56.10;;;;;;5104673;27;19928;-61
2023/08/13 13:35:05;;;;;;;;;;;23.10;56.00;;;;;;5098878;28;19993;-61
2023/08/13 13:37:32;;;;;;;;;;;23.10;56.10;;;;;;5098554;27;19924;-61
2023/08/13 13:40:00;;;;;;;;;;;23.10;56.30;;;;;;5095966;28;20266;-62
2023/08/13 13:42:27;;;;;;;;;;;23.10;56.30;;;;;;5107857;27;20022;-62
2023/08/13 13:44:53;;;;;;;;;;;23.10;56.30;;;;;;5121695;27;19931;-62
2023/08/13 13:47:20;;;;;;;;;;;23.10;56.30;;;;;;5115127;27;19928;-63
2023/08/13 13:49:47;;;;;;;;;;;23.10;56.30;;;;;;5098633;28;19953;-62
2023/08/13 13:52:14;;;;;;;;;;;23.10;56.00;;;;;;5101410;27;20397;-62
2023/08/13 13:54:40;;;;;;;;;;;23.10;56.10;;;;;;5113953;28;19936;-61
2023/08/13 13:57:09;;;;;;;;;;;23.10;56.00;;;;;;5092435;28;19968;-60
2023/08/13 13:59:35;;;;;;;;;;;23.10;56.30;;;;;;5101172;28;19924;-61
2023/08/13 14:02:02;;;;;;;;;;;23.10;56.40;;;;;;5101614;28;19923;-60
2023/08/13 14:04:29;;;;;;;;;;;23.10;56.60;;;;;;5109025;27;19924;-61
2023/08/13 14:06:56;;;;;;;;;;;23.10;56.70;;;;;;5120763;27;19941;-61
2023/08/13 14:09:22;;;;;;;;;;;23.10;56.90;;;;;;5119347;27;19927;-61
2023/08/13 14:11:49;;;;;;;;;;;23.10;57.10;;;;;;5096048;28;19980;-61
2023/08/13 14:14:17;;;;;;;;;;;23.10;57.20;;;;;;5126439;27;19927;-60